createdAt,value
2023-02-22T00:00:23.738Z,95580.34
2023-02-22T00:01:35.538Z,95572.19
2023-02-22T00:02:38.703Z,95581.53
2023-02-22T00:03:40.619Z,95579.22
2023-02-22T00:04:43.484Z,95576.94
2023-02-22T00:05:47.274Z,95579.97
2023-02-22T00:06:50.802Z,95576.94
2023-02-22T00:07:53.173Z,95576.56
2023-02-22T00:08:57.151Z,95582.41
2023-02-22T00:10:00.925Z,95578.16
2023-02-22T00:11:08.575Z,95574.63
2023-02-22T00:12:12.020Z,95575.81
2023-02-22T00:13:15.796Z,95579.72
2023-02-22T00:14:20.357Z,95573.50
2023-02-22T00:15:28.327Z,95569.66
2023-02-22T00:16:31.003Z,95575.84
2023-02-22T00:17:34.098Z,95577.06
2023-02-22T00:18:36.200Z,95569.66
2023-02-22T00:19:39.060Z,95572.38
2023-02-22T00:20:42.204Z,95577.06
2023-02-22T00:21:44.903Z,95575.09
2023-02-22T00:22:49.330Z,95573.56
2023-02-22T00:23:55.092Z,95572.00
2023-02-22T00:24:58.409Z,95573.19
2023-02-22T00:26:01.181Z,95575.56
2023-02-22T00:27:04.694Z,95572.47
2023-02-22T00:28:08.068Z,95570.94
2023-02-22T00:29:11.192Z,95565.50
2023-02-22T00:30:19.041Z,95578.31
2023-02-22T00:31:22.990Z,95579.50
2023-02-22T00:32:24.930Z,95572.50
2023-02-22T00:33:27.918Z,95576.41
2023-02-22T00:34:29.831Z,95572.16
2023-02-22T00:35:33.056Z,95578.78
2023-02-22T00:36:35.209Z,95572.56
2023-02-22T00:37:41.891Z,95570.59
2023-02-22T00:38:43.901Z,95571.78
2023-02-22T00:39:48.225Z,95568.28
2023-02-22T00:40:51.412Z,95569.47
2023-02-22T00:41:54.493Z,95567.94
2023-02-22T00:42:56.869Z,95566.38
2023-02-22T00:44:01.165Z,95568.75
2023-02-22T00:45:03.447Z,95564.47
2023-02-22T00:46:06.618Z,95557.47
2023-02-22T00:47:08.719Z,95560.97
2023-02-22T00:48:11.645Z,95562.16
2023-02-22T00:49:13.724Z,95559.44
2023-02-22T00:50:20.838Z,95555.19
2023-02-22T00:51:26.234Z,95564.91
2023-02-22T00:52:29.472Z,95560.66
2023-02-22T00:53:31.370Z,95563.38
2023-02-22T00:54:34.322Z,95558.69
2023-02-22T00:55:38.375Z,95555.59
2023-02-22T00:56:41.232Z,95556.03
2023-02-22T00:57:43.420Z,95558.75
2023-02-22T00:58:46.377Z,95558.75
2023-02-22T00:59:49.783Z,95554.91
2023-02-22T01:00:53.225Z,95552.56
2023-02-22T01:01:55.318Z,95558.41
2023-02-22T01:02:58.834Z,95549.50
2023-02-22T01:04:00.927Z,95553.41
2023-02-22T01:05:03.945Z,95548.72
2023-02-22T01:06:06.228Z,95547.97
2023-02-22T01:07:09.453Z,95550.69
2023-02-22T01:08:13.933Z,95542.50
2023-02-22T01:09:16.873Z,95540.94
2023-02-22T01:10:20.680Z,95546.41
2023-02-22T01:11:23.547Z,95544.88
2023-02-22T01:12:25.418Z,95542.53
2023-02-22T01:13:28.296Z,95547.22
2023-02-22T01:14:30.173Z,95550.34
2023-02-22T01:15:35.431Z,95546.09
2023-02-22T01:16:37.413Z,95542.56
2023-02-22T01:17:41.667Z,95548.81
2023-02-22T01:18:44.210Z,95547.22
2023-02-22T01:19:47.076Z,95549.53
2023-02-22T01:20:48.937Z,95550.31
2023-02-22T01:21:52.302Z,95541.00
2023-02-22T01:22:57.487Z,95537.13
2023-02-22T01:24:00.427Z,95531.69
2023-02-22T01:25:02.313Z,95534.84
2023-02-22T01:26:06.074Z,95530.53
2023-02-22T01:27:08.211Z,95526.69
2023-02-22T01:28:11.108Z,95529.41
2023-02-22T01:29:15.214Z,95529.41
2023-02-22T01:30:22.063Z,95530.25
2023-02-22T01:31:25.483Z,95523.59
2023-02-22T01:32:28.676Z,95530.25
2023-02-22T01:33:31.242Z,95530.25
2023-02-22T01:34:34.827Z,95537.22
2023-02-22T01:35:40.776Z,95532.97
2023-02-22T01:36:43.924Z,95531.78
2023-02-22T01:37:46.403Z,95533.72
2023-02-22T01:38:49.314Z,95536.09
2023-02-22T01:39:51.247Z,95532.59
2023-02-22T01:40:54.164Z,95530.25
2023-02-22T01:41:56.182Z,95535.72
2023-02-22T01:43:01.704Z,95535.72
2023-02-22T01:44:19.244Z,95526.41
2023-02-22T01:45:47.131Z,95524.88
2023-02-22T01:46:51.667Z,95525.69
2023-02-22T01:47:53.759Z,95522.19
2023-02-22T01:49:01.729Z,95522.63
2023-02-22T01:50:03.653Z,95523.78
2023-02-22T01:51:12.242Z,95521.06
2023-02-22T01:52:20.207Z,95520.28
2023-02-22T01:53:27.773Z,95524.97
2023-02-22T01:54:33.390Z,95514.47
2023-02-22T01:55:36.992Z,95516.44
2023-02-22T01:56:42.058Z,95521.88
2023-02-22T01:57:45.371Z,95519.16
2023-02-22T01:58:51.703Z,95509.44
2023-02-22T01:59:57.564Z,95515.28
2023-02-22T02:01:01.172Z,95502.47
2023-02-22T02:02:05.595Z,95500.91
2023-02-22T02:03:16.056Z,95500.91
2023-02-22T02:04:25.389Z,95504.03
2023-02-22T02:05:34.561Z,95498.59
2023-02-22T02:06:37.618Z,95501.72
2023-02-22T02:07:43.749Z,95501.72
2023-02-22T02:08:53.626Z,95500.59
2023-02-22T02:09:59.838Z,95493.97
2023-02-22T02:11:02.630Z,95498.63
2023-02-22T02:12:08.823Z,95499.81
2023-02-22T02:13:11.318Z,95503.31
2023-02-22T02:14:15.139Z,95501.78
2023-02-22T02:15:20.868Z,95506.03
2023-02-22T02:16:25.481Z,95502.16
2023-02-22T02:17:28.830Z,95499.44
2023-02-22T02:18:32.786Z,95492.44
2023-02-22T02:19:45.930Z,95494.84
2023-02-22T02:21:07.628Z,95491.75
2023-02-22T02:22:25.280Z,95499.09
2023-02-22T02:23:50.392Z,95490.19
2023-02-22T02:25:12.037Z,95501.06
2023-02-22T02:26:40.123Z,95491.38
2023-02-22T02:28:01.708Z,95493.31
2023-02-22T02:29:46.586Z,95492.53
2023-02-22T02:31:21.801Z,95487.09
2023-02-22T02:32:37.710Z,95496.44
2023-02-22T02:33:44.896Z,95493.72
2023-02-22T02:34:52.217Z,95489.44
2023-02-22T02:36:01.350Z,95485.59
2023-02-22T02:37:12.289Z,95484.81
2023-02-22T02:38:26.932Z,95486.00
2023-02-22T02:39:36.028Z,95486.41
2023-02-22T02:40:44.195Z,95484.44
2023-02-22T02:41:50.791Z,95474.75
2023-02-22T02:43:00.158Z,95473.22
2023-02-22T02:44:07.085Z,95477.88
2023-02-22T02:45:15.574Z,95477.13
2023-02-22T02:46:23.909Z,95482.19
2023-02-22T02:47:30.318Z,95484.91
2023-02-22T02:48:35.848Z,95476.38
2023-02-22T02:49:46.928Z,95483.75
2023-02-22T02:50:51.549Z,95471.75
2023-02-22T02:51:56.555Z,95469.44
2023-02-22T02:53:03.472Z,95470.63
2023-02-22T02:54:07.429Z,95468.66
2023-02-22T02:55:11.757Z,95464.75
2023-02-22T02:56:16.576Z,95466.31
2023-02-22T02:57:19.541Z,95467.84
2023-02-22T02:58:23.815Z,95467.84
2023-02-22T02:59:29.437Z,95461.66
2023-02-22T03:00:39.275Z,95464.34
2023-02-22T03:01:57.640Z,95461.28
2023-02-22T03:03:14.595Z,95466.34
2023-02-22T03:04:33.237Z,95463.25
2023-02-22T03:05:52.539Z,95457.03
2023-02-22T03:07:07.830Z,95460.16
2023-02-22T03:08:16.241Z,95457.88
2023-02-22T03:09:34.484Z,95461.75
2023-02-22T03:10:46.795Z,95457.88
2023-02-22T03:12:02.125Z,95461.75
2023-02-22T03:13:12.672Z,95460.97
2023-02-22T03:14:24.078Z,95454.78
2023-02-22T03:15:40.631Z,95459.06
2023-02-22T03:16:50.141Z,95464.09
2023-02-22T03:17:59.019Z,95465.28
2023-02-22T03:19:09.975Z,95461.03
2023-02-22T03:20:18.001Z,95467.22
2023-02-22T03:21:28.198Z,95466.81
2023-02-22T03:22:33.522Z,95465.28
2023-02-22T03:23:40.466Z,95468.00
2023-02-22T03:24:52.915Z,95470.34
2023-02-22T03:26:03.761Z,95477.34
2023-02-22T03:27:12.442Z,95466.09
2023-02-22T03:28:26.266Z,95468.81
2023-02-22T03:29:30.864Z,95468.44
2023-02-22T03:30:39.175Z,95473.88
2023-02-22T03:31:48.510Z,95480.84
2023-02-22T03:32:57.627Z,95476.59
2023-02-22T03:34:07.350Z,95476.59
2023-02-22T03:35:15.870Z,95475.03
2023-02-22T03:36:21.898Z,95476.22
2023-02-22T03:37:28.991Z,95476.22
2023-02-22T03:38:34.896Z,95475.09
2023-02-22T03:39:39.407Z,95474.66
2023-02-22T03:40:45.458Z,95467.69
2023-02-22T03:41:52.415Z,95477.38
2023-02-22T03:43:06.103Z,95473.50
2023-02-22T03:44:14.455Z,95472.75
2023-02-22T03:45:19.779Z,95468.88
2023-02-22T03:46:24.500Z,95468.88
2023-02-22T03:47:33.818Z,95462.66
2023-02-22T03:48:44.447Z,95462.66
2023-02-22T03:49:51.721Z,95472.75
2023-02-22T03:50:55.723Z,95465.78
2023-02-22T03:51:58.830Z,95465.78
2023-02-22T03:53:03.725Z,95465.78
2023-02-22T03:54:08.278Z,95471.22
2023-02-22T03:55:15.278Z,95462.28
2023-02-22T03:56:23.421Z,95459.19
2023-02-22T03:57:29.489Z,95460.34
2023-02-22T03:58:44.107Z,95465.78
2023-02-22T03:59:48.205Z,95460.34
2023-02-22T04:00:53.146Z,95461.13
2023-02-22T04:01:57.356Z,95458.41
2023-02-22T04:03:00.005Z,95464.25
2023-02-22T04:04:03.001Z,95457.28
2023-02-22T04:05:07.055Z,95458.44
2023-02-22T04:06:11.251Z,95449.91
2023-02-22T04:07:17.013Z,95453.81
2023-02-22T04:08:20.001Z,95451.91
2023-02-22T04:09:22.513Z,95451.91
2023-02-22T04:10:25.893Z,95455.03
2023-02-22T04:11:27.879Z,95448.44
2023-02-22T04:12:30.766Z,95445.72
2023-02-22T04:13:39.329Z,95444.97
2023-02-22T04:14:42.263Z,95448.44
2023-02-22T04:15:44.190Z,95451.16
2023-02-22T04:16:48.522Z,95446.13
2023-02-22T04:17:52.254Z,95458.94
2023-02-22T04:18:55.889Z,95450.03
2023-02-22T04:19:58.522Z,95453.13
2023-02-22T04:21:06.937Z,95451.97
2023-02-22T04:22:15.031Z,95455.84
2023-02-22T04:23:17.107Z,95450.03
2023-02-22T04:24:20.015Z,95450.44
2023-02-22T04:25:23.893Z,95453.16
2023-02-22T04:26:28.098Z,95453.56
2023-02-22T04:27:32.699Z,95459.00
2023-02-22T04:28:36.203Z,95453.94
2023-02-22T04:29:58.650Z,95455.09
2023-02-22T04:31:01.906Z,95453.16
2023-02-22T04:32:04.850Z,95455.09
2023-02-22T04:33:08.018Z,95451.22
2023-02-22T04:34:10.747Z,95452.38
2023-02-22T04:35:16.280Z,95446.59
2023-02-22T04:36:19.586Z,95448.91
2023-02-22T04:37:22.810Z,95447.41
2023-02-22T04:38:26.026Z,95450.50
2023-02-22T04:39:30.426Z,95444.31
2023-02-22T04:40:32.523Z,95446.66
2023-02-22T04:41:36.380Z,95447.41
2023-02-22T04:42:39.615Z,95443.94
2023-02-22T04:43:42.481Z,95440.44
2023-02-22T04:44:52.650Z,95440.84
2023-02-22T04:45:55.822Z,95440.47
2023-02-22T04:46:58.726Z,95438.94
2023-02-22T04:48:01.946Z,95436.22
2023-02-22T04:49:04.008Z,95441.66
2023-02-22T04:50:13.187Z,95446.31
2023-02-22T04:51:15.809Z,95437.41
2023-02-22T04:52:31.559Z,95435.44
2023-02-22T04:53:33.458Z,95436.22
2023-02-22T04:54:36.418Z,95437.41
2023-02-22T04:55:38.472Z,95435.81
2023-02-22T04:56:41.581Z,95437.34
2023-02-22T04:57:43.556Z,95439.31
2023-02-22T04:58:47.841Z,95431.94
2023-02-22T04:59:51.119Z,95433.88
2023-02-22T05:00:55.671Z,95440.47
2023-02-22T05:01:57.585Z,95437.75
2023-02-22T05:03:00.431Z,95434.69
2023-02-22T05:04:02.710Z,95428.88
2023-02-22T05:05:05.947Z,95431.22
2023-02-22T05:06:08.725Z,95426.19
2023-02-22T05:07:11.631Z,95425.81
2023-02-22T05:08:15.088Z,95424.28
2023-02-22T05:09:17.967Z,95423.50
2023-02-22T05:10:20.044Z,95429.72
2023-02-22T05:11:23.362Z,95430.09
2023-02-22T05:12:27.600Z,95428.16
2023-02-22T05:13:30.513Z,95426.63
2023-02-22T05:14:32.853Z,95426.63
2023-02-22T05:15:36.557Z,95427.38
2023-02-22T05:16:38.509Z,95431.28
2023-02-22T05:17:41.445Z,95424.28
2023-02-22T05:18:43.409Z,95427.44
2023-02-22T05:19:47.709Z,95422.75
2023-02-22T05:20:49.609Z,95420.44
2023-02-22T05:21:52.560Z,95424.34
2023-02-22T05:22:56.275Z,95423.53
2023-02-22T05:24:00.532Z,95420.06
2023-02-22T05:25:03.269Z,95415.06
2023-02-22T05:26:06.930Z,95414.25
2023-02-22T05:27:09.961Z,95419.69
2023-02-22T05:28:15.157Z,95419.69
2023-02-22T05:29:17.131Z,95416.97
2023-02-22T05:30:20.409Z,95408.06
2023-02-22T05:31:22.479Z,95408.06
2023-02-22T05:32:25.463Z,95410.78
2023-02-22T05:33:27.417Z,95413.50
2023-02-22T05:34:30.870Z,95416.22
2023-02-22T05:35:33.449Z,95411.97
2023-02-22T05:36:36.836Z,95411.53
2023-02-22T05:37:38.808Z,95410.78
2023-02-22T05:38:43.425Z,95412.34
2023-02-22T05:39:46.876Z,95409.63
2023-02-22T05:40:49.945Z,95408.09
2023-02-22T05:41:52.882Z,95418.19
2023-02-22T05:42:55.330Z,95410.44
2023-02-22T05:43:58.237Z,95416.28
2023-02-22T05:45:00.456Z,95408.13
2023-02-22T05:46:03.350Z,95410.84
2023-02-22T05:47:06.507Z,95405.81
2023-02-22T05:48:08.620Z,95411.22
2023-02-22T05:49:11.493Z,95406.59
2023-02-22T05:50:14.473Z,95414.75
2023-02-22T05:51:19.510Z,95410.06
2023-02-22T05:52:21.553Z,95405.81
2023-02-22T05:53:24.652Z,95410.47
2023-02-22T05:54:26.560Z,95405.03
2023-02-22T05:55:30.882Z,95412.81
2023-02-22T05:56:32.811Z,95408.13
2023-02-22T05:57:35.872Z,95406.22
2023-02-22T05:58:38.880Z,95400.00
2023-02-22T05:59:40.809Z,95405.84
2023-02-22T06:00:43.800Z,95400.41
2023-02-22T06:01:45.653Z,95406.59
2023-02-22T06:02:48.542Z,95407.38
2023-02-22T06:03:51.351Z,95401.94
2023-02-22T06:04:54.276Z,95402.38
2023-02-22T06:05:56.279Z,95401.94
2023-02-22T06:06:59.150Z,95406.59
2023-02-22T06:08:02.405Z,95399.22
2023-02-22T06:09:04.400Z,95410.47
2023-02-22T06:10:07.635Z,95403.88
2023-02-22T06:11:12.550Z,95405.03
2023-02-22T06:12:16.088Z,95407.38
2023-02-22T06:13:19.068Z,95407.78
2023-02-22T06:14:21.009Z,95404.28
2023-02-22T06:15:25.324Z,95411.66
2023-02-22T06:16:27.309Z,95408.19
2023-02-22T06:17:30.757Z,95410.53
2023-02-22T06:18:33.938Z,95419.44
2023-02-22T06:19:35.842Z,95418.28
2023-02-22T06:20:38.847Z,95412.88
2023-02-22T06:21:41.985Z,95418.28
2023-02-22T06:22:45.685Z,95414.41
2023-02-22T06:23:48.609Z,95415.97
2023-02-22T06:24:50.659Z,95422.16
2023-02-22T06:25:53.775Z,95419.84
2023-02-22T06:26:58.398Z,95421.38
2023-02-22T06:28:02.282Z,95424.50
2023-02-22T06:29:05.915Z,95423.72
2023-02-22T06:30:12.274Z,95426.06
2023-02-22T06:31:15.946Z,95424.50
2023-02-22T06:32:18.999Z,95423.72
2023-02-22T06:33:20.966Z,95427.19
2023-02-22T06:34:23.876Z,95423.72
2023-02-22T06:35:25.834Z,95426.81
2023-02-22T06:36:28.760Z,95425.63
2023-02-22T06:37:31.048Z,95421.75
2023-02-22T06:38:34.238Z,95417.47
2023-02-22T06:39:36.254Z,95428.31
2023-02-22T06:40:39.182Z,95419.75
2023-02-22T06:41:42.450Z,95424.72
2023-02-22T06:42:49.012Z,95426.63
2023-02-22T06:43:50.911Z,95426.56
2023-02-22T06:44:53.802Z,95426.94
2023-02-22T06:45:56.760Z,95428.88
2023-02-22T06:46:59.689Z,95421.09
2023-02-22T06:48:02.694Z,95423.81
2023-02-22T06:49:04.728Z,95428.88
2023-02-22T06:50:09.009Z,95430.41
2023-02-22T06:51:11.046Z,95424.97
2023-02-22T06:52:13.927Z,95428.47
2023-02-22T06:53:15.844Z,95424.97
2023-02-22T06:54:18.766Z,95426.53
2023-02-22T06:55:22.639Z,95425.75
2023-02-22T06:56:25.496Z,95426.53
2023-02-22T06:57:28.655Z,95423.44
2023-02-22T06:58:32.888Z,95422.25
2023-02-22T06:59:34.892Z,95428.84
2023-02-22T07:00:37.796Z,95424.97
2023-02-22T07:01:41.361Z,95427.25
2023-02-22T07:02:44.439Z,95426.47
2023-02-22T07:03:46.386Z,95436.16
2023-02-22T07:04:50.007Z,95428.00
2023-02-22T07:05:53.436Z,95432.66
2023-02-22T07:06:55.809Z,95426.84
2023-02-22T07:08:04.691Z,95432.63
2023-02-22T07:09:06.636Z,95428.38
2023-02-22T07:10:16.638Z,95429.56
2023-02-22T07:11:19.675Z,95429.91
2023-02-22T07:12:22.784Z,95440.78
2023-02-22T07:13:25.761Z,95431.09
2023-02-22T07:14:29.093Z,95435.00
2023-02-22T07:15:34.074Z,95438.88
2023-02-22T07:16:36.297Z,95438.88
2023-02-22T07:17:41.205Z,95441.19
2023-02-22T07:18:44.078Z,95440.78
2023-02-22T07:19:45.945Z,95442.34
2023-02-22T07:20:49.004Z,95445.06
2023-02-22T07:21:51.001Z,95441.16
2023-02-22T07:22:54.475Z,95447.38
2023-02-22T07:23:59.154Z,95451.22
2023-02-22T07:25:01.106Z,95450.03
2023-02-22T07:26:06.337Z,95457.41
2023-02-22T07:27:08.263Z,95450.41
2023-02-22T07:28:11.992Z,95448.81
2023-02-22T07:29:14.947Z,95461.19
2023-02-22T07:30:21.005Z,95454.19
2023-02-22T07:31:23.293Z,95454.13
2023-02-22T07:32:26.309Z,95455.69
2023-02-22T07:33:28.239Z,95454.88
2023-02-22T07:34:31.230Z,95453.28
2023-02-22T07:35:37.651Z,95458.34
2023-02-22T07:36:39.606Z,95452.50
2023-02-22T07:37:42.533Z,95455.59
2023-02-22T07:38:44.886Z,95458.66
2023-02-22T07:39:47.879Z,95453.59
2023-02-22T07:40:49.782Z,95447.38
2023-02-22T07:41:52.651Z,95449.25
2023-02-22T07:43:00.926Z,95450.75
2023-02-22T07:44:04.208Z,95441.38
2023-02-22T07:45:06.633Z,95449.84
2023-02-22T07:46:10.979Z,95450.16
2023-02-22T07:47:13.020Z,95451.66
2023-02-22T07:48:17.974Z,95451.59
2023-02-22T07:49:19.976Z,95448.81
2023-02-22T07:50:24.728Z,95440.97
2023-02-22T07:51:27.930Z,95440.16
2023-02-22T07:52:30.876Z,95442.06
2023-02-22T07:53:34.529Z,95438.53
2023-02-22T07:54:36.443Z,95436.16
2023-02-22T07:55:39.392Z,95448.97
2023-02-22T07:56:45.946Z,95443.44
2023-02-22T07:57:50.091Z,95441.47
2023-02-22T07:58:53.146Z,95431.69
2023-02-22T07:59:55.297Z,95435.16
2023-02-22T08:01:02.081Z,95440.56
2023-02-22T08:02:06.434Z,95442.44
2023-02-22T08:03:11.946Z,95440.50
2023-02-22T08:04:14.930Z,95433.47
2023-02-22T08:05:17.071Z,95437.31
2023-02-22T08:06:21.037Z,95434.94
2023-02-22T08:07:23.734Z,95427.13
2023-02-22T08:08:27.543Z,95431.41
2023-02-22T08:09:29.529Z,95426.34
2023-02-22T08:10:32.573Z,95433.31
2023-02-22T08:11:34.832Z,95430.94
2023-02-22T08:12:39.234Z,95432.47
2023-02-22T08:13:42.161Z,95421.94
2023-02-22T08:14:44.084Z,95423.06
2023-02-22T08:15:48.525Z,95430.84
2023-02-22T08:16:50.523Z,95421.16
2023-02-22T08:17:55.389Z,95421.47
2023-02-22T08:18:57.285Z,95423.03
2023-02-22T08:20:00.223Z,95428.84
2023-02-22T08:21:03.128Z,95431.56
2023-02-22T08:22:05.232Z,95421.84
2023-02-22T08:23:09.250Z,95421.84
2023-02-22T08:24:11.216Z,95426.94
2023-02-22T08:25:15.506Z,95430.84
2023-02-22T08:26:20.754Z,95421.91
2023-02-22T08:27:27.076Z,95420.34
2023-02-22T08:28:29.941Z,95418.00
2023-02-22T08:29:33.685Z,95419.13
2023-02-22T08:30:40.274Z,95422.19
2023-02-22T08:31:42.498Z,95424.53
2023-02-22T08:32:46.868Z,95416.72
2023-02-22T08:33:51.477Z,95418.19
2023-02-22T08:34:53.458Z,95419.72
2023-02-22T08:35:56.855Z,95418.56
2023-02-22T08:36:58.802Z,95418.13
2023-02-22T08:38:03.608Z,95416.53
2023-02-22T08:39:06.214Z,95412.63
2023-02-22T08:40:10.491Z,95421.16
2023-02-22T08:41:13.387Z,95418.00
2023-02-22T08:42:15.325Z,95407.91
2023-02-22T08:43:19.306Z,95413.34
2023-02-22T08:44:21.270Z,95405.19
2023-02-22T08:45:24.568Z,95399.72
2023-02-22T08:46:27.621Z,95410.19
2023-02-22T08:47:29.702Z,95405.19
2023-02-22T08:48:32.639Z,95413.72
2023-02-22T08:49:35.877Z,95405.94
2023-02-22T08:50:38.865Z,95407.91
2023-02-22T08:51:40.817Z,95403.97
2023-02-22T08:52:43.721Z,95402.44
2023-02-22T08:53:46.587Z,95401.25
2023-02-22T08:54:49.506Z,95397.38
2023-02-22T08:55:52.418Z,95403.97
2023-02-22T08:56:54.340Z,95400.84
2023-02-22T08:57:57.290Z,95401.63
2023-02-22T08:59:00.153Z,95400.09
2023-02-22T09:00:02.887Z,95397.69
2023-02-22T09:01:06.215Z,95399.66
2023-02-22T09:02:15.602Z,95393.44
2023-02-22T09:03:18.669Z,95392.25
2023-02-22T09:04:20.668Z,95394.97
2023-02-22T09:05:24.988Z,95394.56
2023-02-22T09:06:27.897Z,95398.06
2023-02-22T09:07:29.816Z,95396.53
2023-02-22T09:08:32.776Z,95395.31
2023-02-22T09:09:34.772Z,95398.06
2023-02-22T09:10:37.828Z,95393.41
2023-02-22T09:11:39.696Z,95390.66
2023-02-22T09:12:42.777Z,95395.31
2023-02-22T09:13:45.840Z,95389.88
2023-02-22T09:14:47.871Z,95387.50
2023-02-22T09:15:50.838Z,95386.34
2023-02-22T09:16:53.806Z,95384.78
2023-02-22T09:17:56.152Z,95379.69
2023-02-22T09:18:59.144Z,95385.50
2023-02-22T09:20:01.022Z,95392.84
2023-02-22T09:21:06.100Z,95385.09
2023-02-22T09:22:08.109Z,95387.38
2023-02-22T09:23:11.562Z,95385.84
2023-02-22T09:24:13.718Z,95378.03
2023-02-22T09:25:18.150Z,95383.50
2023-02-22T09:26:20.267Z,95380.75
2023-02-22T09:27:23.218Z,95388.19
2023-02-22T09:28:27.310Z,95380.75
2023-02-22T09:29:30.589Z,95387.38
2023-02-22T09:30:35.606Z,95384.63
2023-02-22T09:31:38.685Z,95380.72
2023-02-22T09:32:41.844Z,95379.53
2023-02-22T09:33:47.103Z,95384.22
2023-02-22T09:34:49.391Z,95386.97
2023-02-22T09:35:52.344Z,95381.84
2023-02-22T09:36:57.280Z,95384.56
2023-02-22T09:38:02.429Z,95383.75
2023-02-22T09:39:05.186Z,95377.53
2023-02-22T09:40:10.889Z,95381.44
2023-02-22T09:41:21.040Z,95374.00
2023-02-22T09:42:28.786Z,95375.13
2023-02-22T09:43:40.588Z,95375.50
2023-02-22T09:44:49.162Z,95374.72
2023-02-22T09:46:05.175Z,95377.81
2023-02-22T09:47:18.160Z,95371.16
2023-02-22T09:48:22.589Z,95373.88
2023-02-22T09:49:31.642Z,95371.50
2023-02-22T09:50:38.386Z,95366.41
2023-02-22T09:51:45.208Z,95370.69
2023-02-22T09:52:55.465Z,95371.47
2023-02-22T09:54:03.457Z,95368.31
2023-02-22T09:55:11.495Z,95369.84
2023-02-22T09:56:17.461Z,95370.63
2023-02-22T09:57:26.896Z,95368.66
2023-02-22T09:58:34.410Z,95365.94
2023-02-22T09:59:42.723Z,95362.03
2023-02-22T10:00:48.879Z,95363.56
2023-02-22T10:01:59.396Z,95358.91
2023-02-22T10:03:16.727Z,95360.41
2023-02-22T10:04:23.276Z,95365.47
2023-02-22T10:05:31.058Z,95360.38
2023-02-22T10:06:36.346Z,95357.63
2023-02-22T10:07:47.039Z,95360.69
2023-02-22T10:08:56.489Z,95358.75
2023-02-22T10:10:06.337Z,95355.59
2023-02-22T10:11:21.189Z,95360.63
2023-02-22T10:12:32.172Z,95355.53
2023-02-22T10:13:44.188Z,95348.47
2023-02-22T10:15:26.327Z,95351.56
2023-02-22T10:16:35.417Z,95349.19
2023-02-22T10:17:49.062Z,95352.25
2023-02-22T10:19:17.859Z,95354.13
2023-02-22T10:20:39.045Z,95344.75
2023-02-22T10:21:51.901Z,95343.56
2023-02-22T10:23:06.192Z,95345.91
2023-02-22T10:24:23.583Z,95347.41
2023-02-22T10:25:28.981Z,95343.50
2023-02-22T10:26:35.200Z,95343.44
2023-02-22T10:27:41.321Z,95344.53
2023-02-22T10:28:50.853Z,95339.44
2023-02-22T10:29:58.265Z,95341.75
2023-02-22T10:31:05.768Z,95344.41
2023-02-22T10:32:15.502Z,95341.66
2023-02-22T10:33:20.915Z,95342.44
2023-02-22T10:34:25.829Z,95335.81
2023-02-22T10:35:32.350Z,95340.84
2023-02-22T10:36:39.085Z,95347.81
2023-02-22T10:37:41.049Z,95341.97
2023-02-22T10:38:49.770Z,95345.81
2023-02-22T10:40:00.201Z,95334.13
2023-02-22T10:41:22.050Z,95334.47
2023-02-22T10:42:27.427Z,95336.00
2023-02-22T10:43:31.558Z,95333.63
2023-02-22T10:44:33.599Z,95332.41
2023-02-22T10:45:37.436Z,95329.28
2023-02-22T10:46:41.977Z,95338.22
2023-02-22T10:47:45.537Z,95323.41
2023-02-22T10:48:51.800Z,95330.72
2023-02-22T10:49:58.439Z,95324.06
2023-02-22T10:51:04.971Z,95333.41
2023-02-22T10:52:14.333Z,95326.31
2023-02-22T10:53:17.658Z,95316.50
2023-02-22T10:54:27.089Z,95328.53
2023-02-22T10:55:32.469Z,95326.16
2023-02-22T10:56:34.561Z,95324.53
2023-02-22T10:57:38.440Z,95321.72
2023-02-22T10:58:42.647Z,95326.00
2023-02-22T10:59:46.459Z,95322.84
2023-02-22T11:00:48.385Z,95321.66
2023-02-22T11:01:51.432Z,95322.75
2023-02-22T11:02:56.151Z,95323.50
2023-02-22T11:04:01.479Z,95318.84
2023-02-22T11:05:06.380Z,95323.09
2023-02-22T11:06:19.554Z,95319.16
2023-02-22T11:07:27.226Z,95321.91
2023-02-22T11:08:32.854Z,95318.00
2023-02-22T11:09:51.087Z,95316.38
2023-02-22T11:10:56.560Z,95312.34
2023-02-22T11:12:10.325Z,95309.22
2023-02-22T11:13:25.851Z,95308.75
2023-02-22T11:14:31.022Z,95305.69
2023-02-22T11:15:33.137Z,95306.03
2023-02-22T11:16:39.345Z,95302.88
2023-02-22T11:17:42.508Z,95304.34
2023-02-22T11:18:45.058Z,95301.09
2023-02-22T11:19:49.804Z,95300.56
2023-02-22T11:21:00.460Z,95298.53
2023-02-22T11:22:14.856Z,95289.16
2023-02-22T11:23:23.477Z,95293.34
2023-02-22T11:24:30.348Z,95297.59
2023-02-22T11:25:38.062Z,95292.88
2023-02-22T11:26:44.555Z,95283.94
2023-02-22T11:27:47.940Z,95288.22
2023-02-22T11:28:56.056Z,95286.66
2023-02-22T11:30:20.662Z,95283.94
2023-02-22T11:31:28.157Z,95281.94
2023-02-22T11:32:31.180Z,95278.81
2023-02-22T11:33:33.180Z,95282.63
2023-02-22T11:34:38.934Z,95278.72
2023-02-22T11:35:50.635Z,95274.78
2023-02-22T11:36:53.552Z,95277.44
2023-02-22T11:38:11.783Z,95277.34
2023-02-22T11:39:24.425Z,95269.47
2023-02-22T11:40:27.415Z,95269.81
2023-02-22T11:41:30.939Z,95271.34
2023-02-22T11:42:35.286Z,95268.94
2023-02-22T11:43:37.771Z,95265.69
2023-02-22T11:44:44.205Z,95265.25
2023-02-22T11:46:08.758Z,95269.97
2023-02-22T11:47:12.692Z,95268.00
2023-02-22T11:48:23.235Z,95269.63
2023-02-22T11:49:35.070Z,95262.63
2023-02-22T11:50:53.879Z,95264.16
2023-02-22T11:52:17.748Z,95264.16
2023-02-22T11:53:26.824Z,95266.56
2023-02-22T11:54:45.101Z,95258.63
2023-02-22T11:55:56.495Z,95258.94
2023-02-22T11:57:17.190Z,95259.88
2023-02-22T11:58:37.664Z,95255.75
2023-02-22T11:59:55.664Z,95256.19
2023-02-22T12:01:07.200Z,95253.00
2023-02-22T12:02:51.830Z,95250.28
2023-02-22T12:04:30.862Z,95251.91
2023-02-22T12:05:59.676Z,95249.28
2023-02-22T12:07:24.073Z,95246.97
2023-02-22T12:08:36.880Z,95254.41
2023-02-22T12:09:45.892Z,95248.16
2023-02-22T12:11:10.122Z,95239.19
2023-02-22T12:12:21.978Z,95244.66
2023-02-22T12:13:40.474Z,95238.00
2023-02-22T12:14:55.604Z,95245.34
2023-02-22T12:16:05.346Z,95244.13
2023-02-22T12:17:20.445Z,95240.97
2023-02-22T12:18:30.942Z,95233.88
2023-02-22T12:19:38.028Z,95243.97
2023-02-22T12:20:46.228Z,95246.69
2023-02-22T12:21:54.373Z,95242.00
2023-02-22T12:23:04.127Z,95238.84
2023-02-22T12:24:14.358Z,95236.41
2023-02-22T12:25:21.772Z,95239.06
2023-02-22T12:26:28.281Z,95234.34
2023-02-22T12:27:34.879Z,95235.91
2023-02-22T12:28:43.725Z,95237.00
2023-02-22T12:29:50.196Z,95236.53
2023-02-22T12:30:57.656Z,95234.94
2023-02-22T12:32:06.231Z,95231.75
2023-02-22T12:33:15.600Z,95230.56
2023-02-22T12:34:28.002Z,95237.53
2023-02-22T12:35:34.923Z,95241.84
2023-02-22T12:36:43.687Z,95234.81
2023-02-22T12:37:55.867Z,95231.66
2023-02-22T12:39:07.235Z,95231.66
2023-02-22T12:40:23.289Z,95232.84
2023-02-22T12:41:32.867Z,95226.59
2023-02-22T12:42:51.764Z,95224.63
2023-02-22T12:44:01.038Z,95228.56
2023-02-22T12:45:11.308Z,95221.25
2023-02-22T12:46:19.355Z,95225.09
2023-02-22T12:47:28.974Z,95223.13
2023-02-22T12:48:40.726Z,95223.44
2023-02-22T12:49:49.577Z,95220.38
2023-02-22T12:50:56.214Z,95223.91
2023-02-22T12:52:15.941Z,95216.88
2023-02-22T12:53:29.463Z,95224.34
2023-02-22T12:54:42.952Z,95218.09
2023-02-22T12:55:51.699Z,95221.25